Time;durP1;ratioP1;P1;durP2;ratioP2;P2;SDS_P1;SDS_P2;PMS_P1;PMS_P2;Temp;Humidity;BMP_temperature;BMP_pressure;BME280_temperature;BME280_humidity;BME280_pressure;Samples;Min_cycle;Max_cycle;Signal;HPM_P1;HPM_P2
2021/10/25 00:00:16;;;;;;;7.95;3.90;;;;;;;;;;5034128;28;20045;-79
2021/10/25 00:02:43;;;;;;;5.65;3.53;;;;;;;;;;5033752;28;20052;-79
2021/10/25 00:05:10;;;;;;;5.80;3.22;;;;;;;;;;5033450;28;20494;-79
2021/10/25 00:07:36;;;;;;;6.75;3.80;;;;;;;;;;5033149;28;20486;-79
2021/10/25 00:10:04;;;;;;;7.07;3.80;;;;;;;;;;5033529;28;20080;-79
2021/10/25 00:12:31;;;;;;;6.50;3.28;;;;;;;;;;5032055;28;20046;-79
2021/10/25 00:14:58;;;;;;;6.25;3.53;;;;;;;;;;5033296;28;20508;-79
2021/10/25 00:17:25;;;;;;;6.57;3.30;;;;;;;;;;5033889;28;20045;-79
2021/10/25 00:19:52;;;;;;;4.70;3.28;;;;;;;;;;5029847;28;20049;-79
2021/10/25 00:22:19;;;;;;;6.78;3.65;;;;;;;;;;5022740;28;20049;-79
2021/10/25 00:24:45;;;;;;;5.97;3.45;;;;;;;;;;5033758;28;20041;-80
2021/10/25 00:27:12;;;;;;;6.18;4.10;;;;;;;;;;5007304;28;20045;-79
2021/10/25 00:29:38;;;;;;;6.15;3.28;;;;;;;;;;5033024;28;20050;-80
2021/10/25 00:32:06;;;;;;;5.57;3.30;;;;;;;;;;5033453;28;20049;-79
2021/10/25 00:34:33;;;;;;;5.53;3.53;;;;;;;;;;5033767;28;20042;-79
2021/10/25 00:37:02;;;;;;;8.65;3.58;;;;;;;;;;5030163;28;20084;-79
2021/10/25 00:39:29;;;;;;;6.88;3.17;;;;;;;;;;5033461;28;20418;-80
2021/10/25 00:41:55;;;;;;;6.18;3.15;;;;;;;;;;5033915;28;20042;-79
2021/10/25 00:44:22;;;;;;;6.43;3.97;;;;;;;;;;5033672;28;20052;-79
2021/10/25 00:46:48;;;;;;;8.05;4.38;;;;;;;;;;5032392;28;20057;-79
2021/10/25 00:49:16;;;;;;;6.05;2.88;;;;;;;;;;5033617;28;20044;-79
2021/10/25 00:51:43;;;;;;;5.47;3.25;;;;;;;;;;5033993;28;20049;-79
2021/10/25 00:54:10;;;;;;;8.88;3.50;;;;;;;;;;5033732;28;20124;-79
2021/10/25 00:56:42;;;;;;;6.35;4.30;;;;;;;;;;5034057;28;20048;-79
2021/10/25 00:59:09;;;;;;;6.55;3.53;;;;;;;;;;5034913;28;20049;-79
2021/10/25 01:01:35;;;;;;;7.28;3.70;;;;;;;;;;5038237;28;20053;-79
2021/10/25 01:04:02;;;;;;;7.30;3.63;;;;;;;;;;5038725;28;20064;-79
2021/10/25 01:06:30;;;;;;;5.50;3.17;;;;;;;;;;5034572;28;20386;-79
2021/10/25 01:08:57;;;;;;;6.32;3.35;;;;;;;;;;5038211;28;20453;-79
2021/10/25 01:11:25;;;;;;;5.20;3.22;;;;;;;;;;5038872;28;20397;-79
2021/10/25 01:13:51;;;;;;;5.05;3.15;;;;;;;;;;5035477;28;20117;-79
2021/10/25 01:16:19;;;;;;;7.32;3.15;;;;;;;;;;5039231;28;20064;-79
2021/10/25 01:18:47;;;;;;;6.53;4.25;;;;;;;;;;5042936;28;20044;-79
2021/10/25 01:21:15;;;;;;;6.00;3.55;;;;;;;;;;5027636;28;20052;-79
2021/10/25 01:23:42;;;;;;;5.38;3.28;;;;;;;;;;5029715;28;20050;-80
2021/10/25 01:26:08;;;;;;;6.25;3.03;;;;;;;;;;5036366;28;20052;-79
2021/10/25 01:28:37;;;;;;;5.45;3.05;;;;;;;;;;5037007;28;20053;-79
2021/10/25 01:31:03;;;;;;;6.30;3.50;;;;;;;;;;5034659;28;20041;-79
2021/10/25 01:33:32;;;;;;;7.03;3.40;;;;;;;;;;5036750;28;20454;-79
2021/10/25 01:35:59;;;;;;;7.68;3.83;;;;;;;;;;5036924;28;20047;-79
2021/10/25 01:38:27;;;;;;;5.85;3.72;;;;;;;;;;5036284;28;20052;-79
2021/10/25 01:40:53;;;;;;;7.32;3.90;;;;;;;;;;5034667;28;20045;-79
2021/10/25 01:43:20;;;;;;;6.07;3.78;;;;;;;;;;5037188;28;21575;-79
2021/10/25 01:45:47;;;;;;;6.13;3.80;;;;;;;;;;5035943;28;20132;-79
2021/10/25 01:48:13;;;;;;;6.65;3.58;;;;;;;;;;5036295;28;20041;-79
2021/10/25 01:50:40;;;;;;;5.85;3.53;;;;;;;;;;5036081;28;20052;-79
2021/10/25 01:53:06;;;;;;;6.18;3.83;;;;;;;;;;5035963;28;20099;-79
2021/10/25 01:55:34;;;;;;;6.35;3.92;;;;;;;;;;5037122;28;20042;-80
2021/10/25 01:58:01;;;;;;;6.68;4.03;;;;;;;;;;5037161;28;20378;-79
2021/10/25 02:00:27;;;;;;;7.22;3.63;;;;;;;;;;5036017;28;20142;-79
2021/10/25 02:02:54;;;;;;;7.00;3.78;;;;;;;;;;5035958;28;20041;-79
2021/10/25 02:05:20;;;;;;;6.85;4.05;;;;;;;;;;5035902;28;20037;-79
2021/10/25 02:07:47;;;;;;;5.97;4.18;;;;;;;;;;5033996;28;20049;-79
2021/10/25 02:10:14;;;;;;;7.53;3.58;;;;;;;;;;5035561;28;20101;-79
2021/10/25 02:12:42;;;;;;;6.45;4.07;;;;;;;;;;5035709;28;20053;-79
2021/10/25 02:15:09;;;;;;;8.32;3.75;;;;;;;;;;5036017;28;20557;-79
2021/10/25 02:17:36;;;;;;;6.63;4.00;;;;;;;;;;5035921;28;20045;-79
2021/10/25 02:20:03;;;;;;;6.45;4.00;;;;;;;;;;5027070;28;20406;-79
2021/10/25 02:22:30;;;;;;;6.32;3.88;;;;;;;;;;5035832;28;20053;-79
2021/10/25 02:24:57;;;;;;;7.38;4.35;;;;;;;;;;5036114;28;20406;-79
2021/10/25 02:27:24;;;;;;;7.95;4.50;;;;;;;;;;5035431;28;20125;-79
2021/10/25 02:29:52;;;;;;;7.18;3.90;;;;;;;;;;5035774;28;20045;-79
2021/10/25 02:32:18;;;;;;;8.10;4.45;;;;;;;;;;5035645;28;20045;-79
2021/10/25 02:34:45;;;;;;;8.35;4.28;;;;;;;;;;5035827;28;20050;-79
2021/10/25 02:37:13;;;;;;;6.20;4.05;;;;;;;;;;5030324;28;20045;-79
2021/10/25 02:39:40;;;;;;;6.97;3.80;;;;;;;;;;5035560;28;20095;-79
2021/10/25 02:42:06;;;;;;;6.38;4.10;;;;;;;;;;5035634;28;20049;-79
2021/10/25 02:44:33;;;;;;;9.02;4.95;;;;;;;;;;5036000;28;20045;-79
2021/10/25 02:47:01;;;;;;;8.75;5.32;;;;;;;;;;5035290;28;20041;-79
2021/10/25 02:49:28;;;;;;;8.55;4.68;;;;;;;;;;5035902;28;20049;-79
2021/10/25 02:51:54;;;;;;;7.57;4.38;;;;;;;;;;5035480;28;20418;-79
2021/10/25 02:54:21;;;;;;;6.25;3.80;;;;;;;;;;5035342;28;20485;-79
2021/10/25 02:56:47;;;;;;;8.27;4.43;;;;;;;;;;5029959;28;20048;-79
2021/10/25 02:59:14;;;;;;;7.22;3.95;;;;;;;;;;5035450;28;20057;-79
2021/10/25 03:01:42;;;;;;;8.77;4.43;;;;;;;;;;5034088;28;20043;-80
2021/10/25 03:04:10;;;;;;;9.05;4.10;;;;;;;;;;5036980;28;20108;-79
2021/10/25 03:06:37;;;;;;;6.93;3.85;;;;;;;;;;5030906;28;20504;-79
2021/10/25 03:09:04;;;;;;;9.30;3.58;;;;;;;;;;5035285;28;20053;-79
2021/10/25 03:11:30;;;;;;;7.90;3.83;;;;;;;;;;5037656;28;20052;-79
2021/10/25 03:13:58;;;;;;;7.03;3.75;;;;;;;;;;5031318;28;20046;-79
2021/10/25 03:16:25;;;;;;;8.65;3.63;;;;;;;;;;5036593;28;20037;-80
2021/10/25 03:18:51;;;;;;;5.22;3.17;;;;;;;;;;5037367;28;20397;-80
2021/10/25 03:21:21;;;;;;;7.97;3.80;;;;;;;;;;5028340;28;20512;-80
2021/10/25 03:23:48;;;;;;;6.32;3.92;;;;;;;;;;5030932;28;20370;-80
2021/10/25 03:26:15;;;;;;;8.88;4.80;;;;;;;;;;5036202;28;20046;-80
2021/10/25 03:28:42;;;;;;;7.03;4.70;;;;;;;;;;5029827;28;20087;-80
2021/10/25 03:31:09;;;;;;;7.03;3.97;;;;;;;;;;5036146;28;20080;-81
2021/10/25 03:33:36;;;;;;;7.60;4.15;;;;;;;;;;5036693;28;20143;-80
2021/10/25 03:36:06;;;;;;;8.57;3.90;;;;;;;;;;5029321;28;20041;-80
2021/10/25 03:38:35;;;;;;;7.60;4.03;;;;;;;;;;5030132;28;20041;-80
2021/10/25 03:41:03;;;;;;;8.48;4.50;;;;;;;;;;5035608;28;20041;-80
2021/10/25 03:43:34;;;;;;;8.18;3.97;;;;;;;;;;5034541;28;20042;-80
2021/10/25 03:46:07;;;;;;;10.13;5.18;;;;;;;;;;5035041;28;20073;-80
2021/10/25 03:48:38;;;;;;;7.93;4.28;;;;;;;;;;5034991;28;20049;-79
2021/10/25 03:51:08;;;;;;;8.68;5.30;;;;;;;;;;5032790;28;20042;-79
2021/10/25 03:53:40;;;;;;;8.00;4.63;;;;;;;;;;5028574;28;20042;-79
2021/10/25 03:56:11;;;;;;;7.70;4.18;;;;;;;;;;5035629;28;20076;-79
2021/10/25 04:26:26;;;;;;;10.18;5.68;;;;;;;;;;5034825;28;20059;-79
2021/10/25 04:28:53;;;;;;;8.20;4.25;;;;;;;;;;5035203;28;20124;-79
2021/10/25 04:31:19;;;;;;;9.07;5.20;;;;;;;;;;5034154;28;20049;-79
2021/10/25 04:33:46;;;;;;;8.48;4.60;;;;;;;;;;5036156;28;20049;-79
2021/10/25 04:36:13;;;;;;;14.80;5.07;;;;;;;;;;5032423;28;20045;-79
2021/10/25 04:38:39;;;;;;;10.52;5.20;;;;;;;;;;5038337;28;20045;-79
2021/10/25 04:41:07;;;;;;;12.15;5.78;;;;;;;;;;5039622;28;20056;-79
2021/10/25 04:43:33;;;;;;;7.70;5.20;;;;;;;;;;5040501;28;20049;-79
2021/10/25 04:46:00;;;;;;;10.15;4.97;;;;;;;;;;5038983;28;20041;-79
2021/10/25 04:48:26;;;;;;;9.85;6.22;;;;;;;;;;5040274;28;20053;-81
2021/10/25 04:50:53;;;;;;;11.23;6.65;;;;;;;;;;5042579;28;20041;-83
2021/10/25 04:53:19;;;;;;;9.35;5.43;;;;;;;;;;5038155;28;20056;-83
2021/10/25 04:55:46;;;;;;;8.13;5.00;;;;;;;;;;5006091;28;20447;-82
2021/10/25 04:58:14;;;;;;;9.77;5.60;;;;;;;;;;5040009;28;20038;-83
2021/10/25 05:00:40;;;;;;;8.82;4.60;;;;;;;;;;5040001;28;20370;-80
2021/10/25 05:03:07;;;;;;;7.82;5.22;;;;;;;;;;5039530;28;20591;-81
2021/10/25 05:05:33;;;;;;;7.13;4.47;;;;;;;;;;5038613;28;20124;-81
2021/10/25 05:08:00;;;;;;;8.07;4.97;;;;;;;;;;5020806;28;20041;-82
2021/10/25 05:10:27;;;;;;;8.38;4.63;;;;;;;;;;5039061;28;20049;-82
2021/10/25 05:12:53;;;;;;;7.00;4.78;;;;;;;;;;5022898;28;20079;-82
2021/10/25 05:15:21;;;;;;;8.82;5.68;;;;;;;;;;5040122;28;20041;-81
2021/10/25 05:17:47;;;;;;;8.10;5.60;;;;;;;;;;5037063;28;20042;-81
2021/10/25 05:20:14;;;;;;;11.80;5.50;;;;;;;;;;5039761;28;20048;-81
2021/10/25 05:22:40;;;;;;;8.13;5.05;;;;;;;;;;5039262;28;20526;-82
2021/10/25 05:25:07;;;;;;;9.63;4.78;;;;;;;;;;5022879;28;20050;-81
2021/10/25 05:27:34;;;;;;;9.40;4.10;;;;;;;;;;5039702;28;20525;-81
2021/10/25 05:30:01;;;;;;;9.95;5.38;;;;;;;;;;5040265;28;20123;-81
2021/10/25 05:32:29;;;;;;;8.60;4.95;;;;;;;;;;5040005;28;20162;-80
2021/10/25 05:34:56;;;;;;;9.98;5.28;;;;;;;;;;5039571;28;20057;-81
2021/10/25 05:37:24;;;;;;;8.48;5.25;;;;;;;;;;5039999;28;20605;-82
2021/10/25 05:39:51;;;;;;;8.32;6.10;;;;;;;;;;5021165;28;20522;-82
2021/10/25 05:42:17;;;;;;;8.00;4.53;;;;;;;;;;5003147;28;20095;-82
2021/10/25 05:44:43;;;;;;;11.23;5.05;;;;;;;;;;5040300;28;20053;-81
2021/10/25 05:47:11;;;;;;;7.60;4.40;;;;;;;;;;5039891;28;20049;-82
2021/10/25 05:49:41;;;;;;;8.80;4.72;;;;;;;;;;5022488;28;20049;-80
2021/10/25 05:52:07;;;;;;;7.53;4.40;;;;;;;;;;5039569;28;20506;-80
2021/10/25 05:54:34;;;;;;;7.93;4.47;;;;;;;;;;5039945;28;20045;-80
2021/10/25 05:57:01;;;;;;;8.25;4.45;;;;;;;;;;5039358;28;20041;-80
2021/10/25 05:59:29;;;;;;;9.25;4.93;;;;;;;;;;5039619;28;20060;-81
2021/10/25 06:02:05;;;;;;;10.40;5.13;;;;;;;;;;5039389;28;20045;-80
2021/10/25 06:04:33;;;;;;;7.97;4.50;;;;;;;;;;5039371;28;20571;-81
2021/10/25 06:07:01;;;;;;;10.52;4.90;;;;;;;;;;5039034;28;20045;-82
2021/10/25 06:09:33;;;;;;;9.00;4.60;;;;;;;;;;5039637;28;20064;-81
2021/10/25 06:12:00;;;;;;;7.03;4.20;;;;;;;;;;5039029;28;20049;-81
2021/10/25 06:14:31;;;;;;;7.47;4.30;;;;;;;;;;5039603;28;20121;-81
2021/10/25 06:16:59;;;;;;;11.70;6.35;;;;;;;;;;5038708;28;20064;-81
2021/10/25 06:19:26;;;;;;;14.45;6.43;;;;;;;;;;5038658;28;20053;-80
2021/10/25 06:21:53;;;;;;;9.30;5.40;;;;;;;;;;5035143;28;20053;-83
2021/10/25 06:24:21;;;;;;;8.73;6.03;;;;;;;;;;5038050;28;20426;-82
2021/10/25 06:26:48;;;;;;;7.72;4.85;;;;;;;;;;5025005;28;20045;-82
2021/10/25 06:29:14;;;;;;;6.43;4.15;;;;;;;;;;5020475;28;20064;-81
2021/10/25 06:31:42;;;;;;;11.77;6.10;;;;;;;;;;5038552;28;20046;-82
2021/10/25 06:34:19;;;;;;;7.88;4.32;;;;;;;;;;5038727;28;20386;-81
2021/10/25 06:36:49;;;;;;;8.73;4.93;;;;;;;;;;5039259;28;20402;-81
2021/10/25 06:39:21;;;;;;;7.55;3.75;;;;;;;;;;5038730;28;20148;-82
2021/10/25 06:41:50;;;;;;;6.45;3.95;;;;;;;;;;5037624;28;20045;-81
2021/10/25 06:44:16;;;;;;;9.02;4.35;;;;;;;;;;5038508;28;20468;-82
2021/10/25 06:46:44;;;;;;;13.75;4.63;;;;;;;;;;5037801;28;20037;-81
2021/10/25 06:49:10;;;;;;;11.75;4.95;;;;;;;;;;5038874;28;20049;-80
2021/10/25 06:51:38;;;;;;;9.02;5.65;;;;;;;;;;5037784;28;20064;-81
2021/10/25 06:54:05;;;;;;;15.98;7.05;;;;;;;;;;5038203;28;20045;-82
2021/10/25 06:56:32;;;;;;;8.95;4.97;;;;;;;;;;5036545;28;20077;-82
2021/10/25 06:59:00;;;;;;;8.55;5.07;;;;;;;;;;5025239;28;20046;-81
2021/10/25 07:01:27;;;;;;;11.52;5.65;;;;;;;;;;5037612;28;20046;-82
2021/10/25 07:03:54;;;;;;;8.40;5.30;;;;;;;;;;5038488;28;20052;-81
2021/10/25 07:06:21;;;;;;;8.23;4.38;;;;;;;;;;5037521;28;20563;-82
2021/10/25 07:08:48;;;;;;;12.52;5.78;;;;;;;;;;5036700;28;20045;-82
2021/10/25 07:11:15;;;;;;;8.15;4.55;;;;;;;;;;5038681;28;20402;-81
2021/10/25 07:13:45;;;;;;;9.85;4.75;;;;;;;;;;5041466;28;20038;-80
2021/10/25 07:16:17;;;;;;;8.68;5.15;;;;;;;;;;5041420;28;20046;-81
2021/10/25 07:18:52;;;;;;;8.02;5.13;;;;;;;;;;5041278;28;20433;-82
2021/10/25 08:03:04;;;;;;;10.93;5.72;;;;;;;;;;4993732;28;20068;-82
2021/10/25 08:05:43;;;;;;;9.82;5.82;;;;;;;;;;5008831;28;20045;-82
2021/10/25 08:08:23;;;;;;;9.23;5.93;;;;;;;;;;5033244;28;20045;-82
2021/10/25 08:10:55;;;;;;;9.00;6.32;;;;;;;;;;5037188;28;20076;-81
2021/10/25 08:13:28;;;;;;;9.25;5.90;;;;;;;;;;5037553;28;20045;-83
2021/10/25 08:15:55;;;;;;;11.85;6.72;;;;;;;;;;5037101;28;20067;-81
2021/10/25 08:18:33;;;;;;;11.27;7.40;;;;;;;;;;5038689;28;20045;-82
2021/10/25 08:21:02;;;;;;;10.30;6.93;;;;;;;;;;5036300;28;20561;-82
2021/10/25 08:23:29;;;;;;;10.73;7.03;;;;;;;;;;5036264;28;20052;-81
2021/10/25 08:25:56;;;;;;;10.13;6.22;;;;;;;;;;5027502;28;20050;-81
2021/10/25 08:28:23;;;;;;;13.02;7.03;;;;;;;;;;5021110;28;20041;-81
2021/10/25 08:30:51;;;;;;;10.00;6.35;;;;;;;;;;5037352;28;20045;-81
2021/10/25 08:33:40;;;;;;;12.30;7.03;;;;;;;;;;5036301;28;20099;-83
2021/10/25 08:36:12;;;;;;;9.32;6.65;;;;;;;;;;5042875;28;20497;-82
2021/10/25 08:41:24;;;;;;;10.07;6.50;;;;;;;;;;5033727;28;20053;-81
2021/10/25 08:43:53;;;;;;;12.40;6.40;;;;;;;;;;5037337;28;20046;-83
2021/10/25 08:46:20;;;;;;;8.43;6.20;;;;;;;;;;5037963;28;20049;-83
2021/10/25 08:48:47;;;;;;;10.85;6.65;;;;;;;;;;5037160;28;20512;-81
2021/10/25 08:51:16;;;;;;;11.85;6.25;;;;;;;;;;5038674;28;20052;-82
2021/10/25 08:53:44;;;;;;;10.00;5.78;;;;;;;;;;5037324;28;20101;-83
2021/10/25 08:56:16;;;;;;;11.98;6.15;;;;;;;;;;5038856;28;20505;-84
2021/10/25 08:58:45;;;;;;;13.43;5.88;;;;;;;;;;5038018;28;20049;-83
2021/10/25 09:01:11;;;;;;;10.48;6.15;;;;;;;;;;5037034;28;20092;-81
2021/10/25 09:03:39;;;;;;;11.98;6.80;;;;;;;;;;5036336;28;20041;-82
2021/10/25 09:06:06;;;;;;;11.25;6.55;;;;;;;;;;5036675;28;20053;-82
2021/10/25 09:08:34;;;;;;;9.13;4.82;;;;;;;;;;5037867;28;20049;-81
2021/10/25 09:11:01;;;;;;;8.48;4.63;;;;;;;;;;5037414;28;20073;-81
2021/10/25 09:13:29;;;;;;;10.35;5.65;;;;;;;;;;5037167;28;20050;-82
2021/10/25 09:15:57;;;;;;;10.07;5.65;;;;;;;;;;5037447;28;20053;-82
2021/10/25 09:18:26;;;;;;;8.65;5.35;;;;;;;;;;5036987;28;20095;-81
2021/10/25 09:20:54;;;;;;;8.25;5.32;;;;;;;;;;5039422;28;20045;-80
2021/10/25 09:23:22;;;;;;;11.52;5.40;;;;;;;;;;5041328;28;20042;-81
2021/10/25 09:25:55;;;;;;;8.65;5.60;;;;;;;;;;5040669;28;20069;-82
2021/10/25 09:28:26;;;;;;;10.15;5.05;;;;;;;;;;5043853;28;20060;-81
2021/10/25 09:30:54;;;;;;;11.98;7.07;;;;;;;;;;5036900;28;20516;-82
2021/10/25 09:33:23;;;;;;;9.63;6.00;;;;;;;;;;5039742;28;20444;-80
2021/10/25 09:35:57;;;;;;;10.30;6.78;;;;;;;;;;5040325;28;20093;-79
2021/10/25 09:38:30;;;;;;;9.13;6.22;;;;;;;;;;5039241;28;20052;-80
2021/10/25 09:41:34;;;;;;;9.52;5.80;;;;;;;;;;5039450;28;20612;-80
2021/10/25 09:49:30;;;;;;;6.47;4.18;;;;;;;;;;5041653;28;20060;-81
2021/10/25 09:51:58;;;;;;;6.55;4.07;;;;;;;;;;5040081;28;20061;-80
2021/10/25 09:54:26;;;;;;;6.20;3.92;;;;;;;;;;5040777;28;20045;-81
2021/10/25 09:57:03;;;;;;;6.03;3.60;;;;;;;;;;5039870;28;20069;-82
2021/10/25 09:59:34;;;;;;;5.53;3.28;;;;;;;;;;5039823;28;20045;-82
2021/10/25 10:02:03;;;;;;;7.25;3.80;;;;;;;;;;5039566;28;20049;-82
2021/10/25 10:04:30;;;;;;;8.18;3.83;;;;;;;;;;5040821;28;20149;-80
2021/10/25 10:06:58;;;;;;;4.63;3.38;;;;;;;;;;5040173;28;20045;-81
2021/10/25 10:09:24;;;;;;;6.63;3.42;;;;;;;;;;5040550;28;20049;-80
2021/10/25 10:11:51;;;;;;;6.10;3.60;;;;;;;;;;5040439;28;20056;-80
2021/10/25 10:14:20;;;;;;;5.45;3.60;;;;;;;;;;5043856;28;20048;-81
2021/10/25 10:16:47;;;;;;;5.20;3.60;;;;;;;;;;5039735;28;20099;-82
2021/10/25 10:19:23;;;;;;;5.85;3.22;;;;;;;;;;5037845;28;20041;-80
2021/10/25 10:21:51;;;;;;;6.13;3.88;;;;;;;;;;5039663;28;20053;-80
2021/10/25 10:24:21;;;;;;;6.07;3.53;;;;;;;;;;5040318;28;20401;-82
2021/10/25 10:26:53;;;;;;;8.07;3.25;;;;;;;;;;5040024;28;20046;-81
2021/10/25 10:29:21;;;;;;;9.77;3.40;;;;;;;;;;5041038;28;20051;-83
2021/10/25 10:31:59;;;;;;;12.32;3.78;;;;;;;;;;5039106;28;20099;-81
2021/10/25 10:34:25;;;;;;;5.55;3.33;;;;;;;;;;5040530;28;20053;-82
2021/10/25 10:36:54;;;;;;;4.90;3.42;;;;;;;;;;5022517;28;20053;-81
2021/10/25 10:39:21;;;;;;;6.28;4.18;;;;;;;;;;5040060;28;20048;-83
2021/10/25 10:41:55;;;;;;;5.28;3.65;;;;;;;;;;5040383;28;20058;-83
2021/10/25 10:44:26;;;;;;;5.85;3.78;;;;;;;;;;5017430;28;20057;-82
2021/10/25 10:46:57;;;;;;;5.45;4.00;;;;;;;;;;5040241;28;20095;-82
2021/10/25 10:49:27;;;;;;;7.72;4.55;;;;;;;;;;5038502;28;20065;-80
2021/10/25 10:52:13;;;;;;;6.05;4.15;;;;;;;;;;5037993;28;20068;-80
2021/10/25 10:54:45;;;;;;;7.72;4.25;;;;;;;;;;5038384;28;20049;-80
2021/10/25 10:57:25;;;;;;;7.38;4.63;;;;;;;;;;5038442;28;20045;-81
2021/10/25 10:59:59;;;;;;;9.52;4.70;;;;;;;;;;5038699;28;20053;-80
2021/10/25 11:02:26;;;;;;;7.82;4.75;;;;;;;;;;5037554;28;20048;-81
2021/10/25 11:04:52;;;;;;;8.75;5.43;;;;;;;;;;5039007;28;20046;-82
2021/10/25 11:07:19;;;;;;;7.60;4.60;;;;;;;;;;5038939;28;20041;-80
2021/10/25 11:09:46;;;;;;;6.63;4.60;;;;;;;;;;5037822;28;20045;-80
2021/10/25 11:12:17;;;;;;;8.32;5.20;;;;;;;;;;5037223;28;20069;-79
2021/10/25 11:14:48;;;;;;;9.55;4.88;;;;;;;;;;5035259;28;20068;-81
2021/10/25 11:17:19;;;;;;;10.18;5.15;;;;;;;;;;5036203;28;20091;-81
2021/10/25 11:19:47;;;;;;;9.60;5.50;;;;;;;;;;5036347;28;20056;-81
2021/10/25 11:22:25;;;;;;;8.48;5.75;;;;;;;;;;5035300;28;20057;-82
2021/10/25 11:24:54;;;;;;;9.10;5.45;;;;;;;;;;5018666;28;20048;-82
2021/10/25 11:27:29;;;;;;;9.05;5.28;;;;;;;;;;5037061;28;20513;-82
2021/10/25 11:30:05;;;;;;;7.35;4.70;;;;;;;;;;5038337;28;20069;-82
2021/10/25 11:32:33;;;;;;;10.15;5.45;;;;;;;;;;5038253;28;20085;-82
2021/10/25 11:34:59;;;;;;;12.00;5.07;;;;;;;;;;5038564;28;20053;-82
2021/10/25 11:37:27;;;;;;;7.70;5.35;;;;;;;;;;5038562;28;20072;-82
2021/10/25 11:39:58;;;;;;;10.15;6.63;;;;;;;;;;5036901;28;20049;-81
2021/10/25 11:42:26;;;;;;;22.33;6.10;;;;;;;;;;5037101;28;20561;-82
2021/10/25 11:44:53;;;;;;;11.52;6.47;;;;;;;;;;5039425;28;20049;-82
2021/10/25 11:47:21;;;;;;;8.65;5.82;;;;;;;;;;5038560;28;20045;-82
2021/10/25 11:49:50;;;;;;;11.20;6.53;;;;;;;;;;5038631;28;20049;-83
2021/10/25 11:52:17;;;;;;;10.18;6.35;;;;;;;;;;5037055;28;20045;-82
2021/10/25 11:54:50;;;;;;;9.98;6.50;;;;;;;;;;5037080;28;20120;-82
2021/10/25 11:57:18;;;;;;;10.75;6.50;;;;;;;;;;5037737;28;20046;-82
2021/10/25 11:59:54;;;;;;;13.15;6.97;;;;;;;;;;5037332;28;20482;-83
2021/10/25 12:02:23;;;;;;;11.00;5.95;;;;;;;;;;5037297;28;20045;-81
2021/10/25 12:04:50;;;;;;;8.85;5.82;;;;;;;;;;5037477;28;20076;-81
2021/10/25 12:07:17;;;;;;;9.43;6.30;;;;;;;;;;5035856;28;20112;-80
2021/10/25 12:09:43;;;;;;;10.05;6.43;;;;;;;;;;5035736;28;20045;-81
2021/10/25 12:12:13;;;;;;;9.88;5.85;;;;;;;;;;5035260;28;20498;-81
2021/10/25 12:14:43;;;;;;;11.52;6.28;;;;;;;;;;5037808;28;20440;-81
2021/10/25 12:17:12;;;;;;;10.48;6.70;;;;;;;;;;5036522;28;20054;-81
2021/10/25 12:19:39;;;;;;;8.10;5.95;;;;;;;;;;5036546;28;20105;-78
2021/10/25 12:22:11;;;;;;;12.48;6.07;;;;;;;;;;5035204;28;20049;-78
2021/10/25 12:24:42;;;;;;;10.52;6.13;;;;;;;;;;5033552;28;20049;-78
2021/10/25 12:27:13;;;;;;;7.45;5.55;;;;;;;;;;5028582;28;20041;-77
2021/10/25 12:29:39;;;;;;;8.32;5.80;;;;;;;;;;5034295;28;20596;-78
2021/10/25 12:32:09;;;;;;;12.50;6.25;;;;;;;;;;5034633;28;20045;-79
2021/10/25 12:34:52;;;;;;;8.70;5.85;;;;;;;;;;5035201;28;20494;-79
2021/10/25 12:37:25;;;;;;;9.63;6.57;;;;;;;;;;5032240;28;20041;-78
2021/10/25 12:39:52;;;;;;;9.82;6.25;;;;;;;;;;5035163;28;20107;-81
2021/10/25 12:42:19;;;;;;;9.73;6.50;;;;;;;;;;5034058;28;20041;-79
2021/10/25 12:44:48;;;;;;;10.18;6.35;;;;;;;;;;5035040;28;20069;-78
2021/10/25 12:47:16;;;;;;;19.92;7.32;;;;;;;;;;5034861;28;20402;-79
2021/10/25 12:49:46;;;;;;;10.77;6.70;;;;;;;;;;5036855;28;20101;-80
2021/10/25 12:52:14;;;;;;;9.45;6.30;;;;;;;;;;5034625;28;20049;-79
2021/10/25 12:54:43;;;;;;;9.57;7.38;;;;;;;;;;5035733;28;20048;-78
2021/10/25 12:57:21;;;;;;;11.02;7.03;;;;;;;;;;5018733;28;20647;-79
2021/10/25 12:59:59;;;;;;;11.35;6.30;;;;;;;;;;5040236;28;20076;-79
2021/10/25 13:02:26;;;;;;;18.75;10.10;;;;;;;;;;5039201;28;20537;-79
2021/10/25 13:04:52;;;;;;;23.83;11.88;;;;;;;;;;5038613;28;20041;-79
2021/10/25 13:07:20;;;;;;;19.17;9.75;;;;;;;;;;5038076;28;20037;-79
2021/10/25 13:09:53;;;;;;;11.90;7.57;;;;;;;;;;5038534;28;20406;-79
2021/10/25 13:12:20;;;;;;;10.60;7.10;;;;;;;;;;5039865;28;20072;-80
2021/10/25 13:14:49;;;;;;;9.95;6.53;;;;;;;;;;5040396;28;20390;-79
2021/10/25 13:17:15;;;;;;;12.20;6.82;;;;;;;;;;5039455;28;20046;-80
2021/10/25 13:19:42;;;;;;;9.70;6.32;;;;;;;;;;5040171;28;20041;-80
2021/10/25 13:22:08;;;;;;;10.45;6.82;;;;;;;;;;5039484;28;20046;-79
2021/10/25 13:24:35;;;;;;;11.13;6.38;;;;;;;;;;5039066;28;20099;-79
2021/10/25 13:27:05;;;;;;;10.32;6.50;;;;;;;;;;5039467;28;20046;-79
2021/10/25 13:29:32;;;;;;;9.63;7.13;;;;;;;;;;5038165;28;20414;-79
2021/10/25 13:31:58;;;;;;;11.80;6.82;;;;;;;;;;5038632;28;20064;-80
2021/10/25 13:34:25;;;;;;;10.75;6.90;;;;;;;;;;5038653;28;20049;-79
2021/10/25 13:36:51;;;;;;;11.55;6.78;;;;;;;;;;5039437;28;20045;-79
2021/10/25 13:39:18;;;;;;;12.40;7.28;;;;;;;;;;5037719;28;20599;-79
2021/10/25 13:41:45;;;;;;;11.00;6.85;;;;;;;;;;5035996;28;20521;-79
2021/10/25 13:44:13;;;;;;;13.98;7.13;;;;;;;;;;5035558;28;20049;-80
2021/10/25 13:46:39;;;;;;;8.32;5.90;;;;;;;;;;5037567;28;20049;-78
2021/10/25 13:49:07;;;;;;;9.25;6.55;;;;;;;;;;5036574;28;20056;-79
2021/10/25 13:51:34;;;;;;;11.23;6.60;;;;;;;;;;5036958;28;20045;-79
2021/10/25 13:54:01;;;;;;;7.75;5.75;;;;;;;;;;5037233;28;20091;-79
2021/10/25 13:56:27;;;;;;;9.27;6.70;;;;;;;;;;5037055;28;20064;-79
2021/10/25 13:58:54;;;;;;;10.02;7.13;;;;;;;;;;5036426;28;20049;-80
2021/10/25 14:01:22;;;;;;;9.63;6.47;;;;;;;;;;5036636;28;20049;-79
2021/10/25 14:03:50;;;;;;;11.55;6.20;;;;;;;;;;5036351;28;20053;-79
2021/10/25 14:06:17;;;;;;;9.82;5.80;;;;;;;;;;5038610;28;20065;-80
2021/10/25 14:08:44;;;;;;;10.02;6.35;;;;;;;;;;5034951;28;20518;-78
2021/10/25 14:11:11;;;;;;;11.27;5.90;;;;;;;;;;5035774;28;20052;-80
2021/10/25 14:13:42;;;;;;;8.30;5.88;;;;;;;;;;5034907;28;20048;-78
2021/10/25 14:16:21;;;;;;;8.95;5.82;;;;;;;;;;5037162;28;20045;-79
2021/10/25 14:18:49;;;;;;;9.38;5.38;;;;;;;;;;5039433;28;20591;-79
2021/10/25 14:21:18;;;;;;;10.48;6.70;;;;;;;;;;5036379;28;20041;-79
2021/10/25 14:23:45;;;;;;;10.90;6.30;;;;;;;;;;5032050;28;20389;-78
2021/10/25 14:26:12;;;;;;;7.97;5.93;;;;;;;;;;5032242;28;20042;-78
2021/10/25 14:28:41;;;;;;;8.93;5.95;;;;;;;;;;5034809;28;20124;-78
2021/10/25 14:31:12;;;;;;;12.27;6.13;;;;;;;;;;5035135;28;20136;-78
2021/10/25 14:33:38;;;;;;;8.10;5.78;;;;;;;;;;5034963;28;20045;-78
2021/10/25 14:36:06;;;;;;;7.18;5.30;;;;;;;;;;5036038;28;20394;-79
2021/10/25 14:38:40;;;;;;;9.25;5.47;;;;;;;;;;5034046;28;20048;-78
2021/10/25 14:41:16;;;;;;;7.45;5.50;;;;;;;;;;5023597;28;20056;-78
2021/10/25 14:43:46;;;;;;;6.82;5.03;;;;;;;;;;5034099;28;20037;-78
2021/10/25 14:46:17;;;;;;;7.13;5.05;;;;;;;;;;5032547;28;20053;-78
2021/10/25 14:48:50;;;;;;;9.82;5.78;;;;;;;;;;5035344;28;20037;-79
2021/10/25 14:54:07;;;;;;;10.90;6.03;;;;;;;;;;5036000;28;20056;-78
2021/10/25 14:56:33;;;;;;;6.88;4.93;;;;;;;;;;5039871;28;20045;-82
2021/10/25 14:59:00;;;;;;;11.25;6.85;;;;;;;;;;5036598;28;20050;-81
2021/10/25 15:01:26;;;;;;;14.48;8.38;;;;;;;;;;5034352;28;20047;-80
2021/10/25 15:03:53;;;;;;;13.40;8.50;;;;;;;;;;5034622;28;20041;-79
2021/10/25 15:06:21;;;;;;;11.63;6.95;;;;;;;;;;5034142;28;20045;-80
2021/10/25 15:08:47;;;;;;;8.23;5.97;;;;;;;;;;5031391;28;20125;-80
2021/10/25 15:11:14;;;;;;;10.63;6.43;;;;;;;;;;5035271;28;20049;-80
2021/10/25 15:13:40;;;;;;;20.00;9.27;;;;;;;;;;5022758;28;20056;-80
2021/10/25 15:16:07;;;;;;;19.95;9.77;;;;;;;;;;5036561;28;20053;-80
2021/10/25 15:18:33;;;;;;;12.50;7.07;;;;;;;;;;5038773;28;20453;-80
2021/10/25 15:21:00;;;;;;;11.40;6.80;;;;;;;;;;5026340;28;20417;-80
2021/10/25 15:23:28;;;;;;;12.88;7.20;;;;;;;;;;5036707;28;20045;-80
2021/10/25 15:25:56;;;;;;;10.60;6.20;;;;;;;;;;5032336;28;20141;-80
2021/10/25 15:28:23;;;;;;;12.05;6.88;;;;;;;;;;5037392;28;20470;-81
2021/10/25 15:30:51;;;;;;;11.45;7.15;;;;;;;;;;5035697;28;20132;-80
2021/10/25 15:33:18;;;;;;;14.27;7.43;;;;;;;;;;5035812;28;20049;-80
2021/10/25 15:35:46;;;;;;;11.00;6.93;;;;;;;;;;5035239;28;20053;-80
2021/10/25 15:38:12;;;;;;;15.93;9.48;;;;;;;;;;5035765;28;20056;-80
2021/10/25 15:40:40;;;;;;;15.15;10.02;;;;;;;;;;5035720;28;20671;-80
2021/10/25 15:43:06;;;;;;;17.27;9.07;;;;;;;;;;5035327;28;20053;-81
2021/10/25 15:45:33;;;;;;;12.88;7.82;;;;;;;;;;5037630;28;20397;-81
2021/10/25 15:48:00;;;;;;;9.90;6.10;;;;;;;;;;5035823;28;20124;-81
2021/10/25 15:50:28;;;;;;;9.32;6.18;;;;;;;;;;5035657;28;20076;-81
2021/10/25 15:52:57;;;;;;;8.70;5.63;;;;;;;;;;5034682;28;20452;-81
2021/10/25 15:55:24;;;;;;;7.95;5.35;;;;;;;;;;5034999;28;20038;-81
2021/10/25 15:57:56;;;;;;;7.40;4.88;;;;;;;;;;5035025;28;20532;-80
2021/10/25 16:00:23;;;;;;;6.90;4.95;;;;;;;;;;5032529;28;20076;-80
2021/10/25 16:02:50;;;;;;;6.80;4.60;;;;;;;;;;5033257;28;20443;-80
2021/10/25 16:05:17;;;;;;;7.60;4.55;;;;;;;;;;5032856;28;20064;-80